Time;durP1;ratioP1;P1;durP2;ratioP2;P2;SDS_P1;SDS_P2;PMS_P1;PMS_P2;Temp;Humidity;BMP_temperature;BMP_pressure;BME280_temperature;BME280_humidity;BME280_pressure;Samples;Min_cycle;Max_cycle;Signal;HPM_P1;HPM_P2
2021/10/15 00:02:01;;;;;;;8.30;4.07;;;;;;;-144.43;100.00;64487.81;5051383;28;20029;-62
2021/10/15 00:04:26;;;;;;;5.88;3.88;;;;;;;-144.43;100.00;64487.81;5051169;28;20025;-59
2021/10/15 00:06:54;;;;;;;7.03;4.35;;;;;;;-144.43;100.00;64487.81;5050765;28;20025;-61
2021/10/15 00:09:20;;;;;;;9.65;4.25;;;;;;;-144.43;100.00;64487.81;5050991;28;20475;-61
2021/10/15 00:11:45;;;;;;;5.50;4.00;;;;;;;-144.43;100.00;64487.81;5054314;28;20032;-60
2021/10/15 00:14:13;;;;;;;7.90;4.68;;;;;;;-144.43;100.00;64487.81;5054956;28;20576;-58
2021/10/15 00:16:51;;;;;;;5.78;3.97;;;;;;;-144.43;100.00;64487.81;5049797;28;20052;-59
2021/10/15 00:19:19;;;;;;;7.53;4.10;;;;;;;-144.43;100.00;64487.81;5047895;28;20475;-61
2021/10/15 00:21:45;;;;;;;8.38;4.80;;;;;;;-144.43;100.00;64487.81;5037136;28;20028;-59
2021/10/15 00:24:10;;;;;;;7.82;4.45;;;;;;;-144.43;100.00;64487.81;5053026;28;20505;-61
2021/10/15 00:26:41;;;;;;;6.47;4.13;;;;;;;-144.43;100.00;64487.81;5027676;28;20045;-61
2021/10/15 00:29:09;;;;;;;6.60;4.20;;;;;;;-144.43;100.00;64487.81;5037472;28;20550;-60
2021/10/15 00:31:35;;;;;;;6.32;4.10;;;;;;;-144.43;100.00;64487.81;5046041;28;20029;-61
2021/10/15 00:34:06;;;;;;;7.07;4.60;;;;;;;-144.43;100.00;64487.81;5036211;28;20026;-61
2021/10/15 00:36:31;;;;;;;5.30;3.92;;;;;;;-144.43;100.00;64487.81;5055442;28;20048;-62
2021/10/15 00:38:56;;;;;;;5.53;4.20;;;;;;;-144.43;100.00;64487.81;5037401;28;20491;-61
2021/10/15 00:41:22;;;;;;;7.80;5.28;;;;;;;-144.43;100.00;64487.81;5055397;28;20024;-60
2021/10/15 00:44:26;;;;;;;8.93;4.72;;;;;;;-144.43;100.00;64487.81;5043863;28;20134;-61
2021/10/15 00:46:56;;;;;;;6.05;4.47;;;;;;;-144.43;100.00;64487.81;5013296;28;20034;-62
2021/10/15 00:49:27;;;;;;;8.25;4.50;;;;;;;-144.43;100.00;64487.81;4997250;28;20105;-61
2021/10/15 00:51:52;;;;;;;7.72;5.45;;;;;;;-144.43;100.00;64487.81;5013010;28;20037;-61
2021/10/15 00:54:18;;;;;;;6.82;5.20;;;;;;;-144.43;100.00;64487.81;5013301;28;20030;-60
2021/10/15 00:56:49;;;;;;;8.50;5.68;;;;;;;-144.43;100.00;64487.81;4996605;28;20030;-61
2021/10/15 00:59:17;;;;;;;8.60;5.75;;;;;;;-144.43;100.00;64487.81;4979960;28;20099;-59
2021/10/15 01:01:42;;;;;;;7.15;5.22;;;;;;;-144.43;100.00;64487.81;4993184;28;20165;-60
2021/10/15 01:04:14;;;;;;;9.65;5.75;;;;;;;-144.43;100.00;64487.81;5012963;28;20096;-61
2021/10/15 01:06:46;;;;;;;7.35;5.35;;;;;;;-144.43;100.00;64487.81;5012818;28;20109;-58
2021/10/15 01:09:14;;;;;;;9.80;6.00;;;;;;;-144.43;100.00;64487.81;4980472;28;20026;-59
2021/10/15 01:11:47;;;;;;;8.45;6.07;;;;;;;-144.43;100.00;64487.81;5012889;28;20033;-58
2021/10/15 01:14:13;;;;;;;8.32;5.25;;;;;;;-144.43;100.00;64487.81;4997520;28;20088;-59
2021/10/15 01:16:44;;;;;;;9.05;5.70;;;;;;;-144.43;100.00;64487.81;5016978;28;20042;-58
2021/10/15 01:19:09;;;;;;;8.82;5.57;;;;;;;-144.43;100.00;64487.81;5032846;28;20043;-58
2021/10/15 01:21:35;;;;;;;7.38;5.32;;;;;;;-144.43;100.00;64487.81;5036855;28;20387;-59
2021/10/15 01:24:01;;;;;;;9.13;5.75;;;;;;;-144.43;100.00;64487.81;5054533;28;20033;-60
2021/10/15 01:26:32;;;;;;;9.32;6.15;;;;;;;-144.43;100.00;64487.81;5044941;28;20041;-58
2021/10/15 01:28:58;;;;;;;9.00;6.35;;;;;;;-144.43;100.00;64487.81;5033432;28;20032;-57
2021/10/15 01:31:24;;;;;;;11.07;6.25;;;;;;;-144.43;100.00;64487.81;5036707;28;20029;-60
2021/10/15 01:33:57;;;;;;;9.25;6.60;;;;;;;-144.43;100.00;64487.81;5053715;28;20108;-60
2021/10/15 01:36:26;;;;;;;;;;;;;;;-144.43;100.00;64487.81;5036871;28;20021;-61
2021/10/15 01:38:51;;;;;;;9.50;6.50;;;;;;;-144.43;100.00;64487.81;5054281;28;19908;-61
2021/10/15 01:41:17;;;;;;;9.07;6.20;;;;;;;-144.43;100.00;64487.81;5036510;28;20040;-61
2021/10/15 01:43:49;;;;;;;10.57;6.30;;;;;;;-144.43;100.00;64487.81;5036326;28;20049;-59
2021/10/15 01:46:23;;;;;;;8.32;6.05;;;;;;;-144.43;100.00;64487.81;5054096;28;20115;-61
2021/10/15 01:48:48;;;;;;;11.32;6.35;;;;;;;-144.43;100.00;64487.81;5054103;28;20057;-61
2021/10/15 01:51:14;;;;;;;10.27;6.57;;;;;;;-144.43;100.00;64487.81;5054164;28;20052;-61
2021/10/15 01:53:41;;;;;;;12.52;7.15;;;;;;;-144.43;100.00;64487.81;5036141;28;20020;-61
2021/10/15 01:56:07;;;;;;;8.63;6.18;;;;;;;-144.43;100.00;64487.81;5036360;28;20115;-61
2021/10/15 01:58:34;;;;;;;11.70;6.97;;;;;;;-144.43;100.00;64487.81;5036081;28;20032;-61
2021/10/15 02:01:00;;;;;;;9.50;6.65;;;;;;;-144.43;100.00;64487.81;5040989;28;20029;-61
2021/10/15 02:03:25;;;;;;;10.45;6.35;;;;;;;-144.43;100.00;64487.81;5035638;28;20034;-61
2021/10/15 02:05:51;;;;;;;8.25;6.03;;;;;;;-144.43;100.00;64487.81;5036060;28;20032;-61
2021/10/15 02:08:24;;;;;;;8.85;6.40;;;;;;;-144.43;100.00;64487.81;5019561;28;20613;-60
2021/10/15 02:10:52;;;;;;;8.82;5.97;;;;;;;-144.43;100.00;64487.81;5053767;28;20032;-57
2021/10/15 02:13:18;;;;;;;10.43;6.65;;;;;;;-144.43;100.00;64487.81;5035951;28;20457;-59
2021/10/15 02:15:43;;;;;;;8.57;6.25;;;;;;;-144.43;100.00;64487.81;5053673;28;20052;-61
2021/10/15 02:18:09;;;;;;;9.05;6.00;;;;;;;-144.43;100.00;64487.81;5035815;28;20364;-61
2021/10/15 02:20:34;;;;;;;8.15;5.72;;;;;;;-144.43;100.00;64487.81;5053454;28;20029;-61
2021/10/15 02:23:00;;;;;;;8.23;5.78;;;;;;;-144.43;100.00;64487.81;5053468;28;20070;-60
2021/10/15 02:25:26;;;;;;;7.97;6.10;;;;;;;-144.43;100.00;64487.81;5053208;28;20186;-61
2021/10/15 02:27:53;;;;;;;8.25;5.82;;;;;;;-144.43;100.00;64487.81;5034315;28;20026;-60
2021/10/15 02:30:20;;;;;;;7.78;5.80;;;;;;;-144.43;100.00;64487.81;5051388;28;20025;-60
2021/10/15 02:32:46;;;;;;;7.85;5.38;;;;;;;-144.43;100.00;64487.81;5052471;28;20365;-60
2021/10/15 02:35:12;;;;;;;8.82;5.60;;;;;;;-144.43;100.00;64487.81;5053167;28;20028;-59
2021/10/15 02:37:40;;;;;;;8.57;5.65;;;;;;;-144.43;100.00;64487.81;5035373;28;20029;-61
2021/10/15 02:40:06;;;;;;;8.45;5.70;;;;;;;-144.43;100.00;64487.81;5053205;28;20025;-61
2021/10/15 02:42:35;;;;;;;8.80;5.50;;;;;;;-144.43;100.00;64487.81;5035448;28;20024;-61
2021/10/15 02:45:01;;;;;;;8.10;5.28;;;;;;;-144.43;100.00;64487.81;5019054;28;20028;-61
2021/10/15 02:47:26;;;;;;;8.80;5.72;;;;;;;-144.43;100.00;64487.81;5053035;28;20031;-61
2021/10/15 02:49:55;;;;;;;8.50;5.70;;;;;;;-144.43;100.00;64487.81;5052968;28;20032;-61
2021/10/15 02:52:26;;;;;;;7.45;5.50;;;;;;;-144.43;100.00;64487.81;5052801;28;20114;-60
2021/10/15 02:54:52;;;;;;;6.18;4.13;;;;;;;-144.43;100.00;64487.81;5052708;28;20029;-61
2021/10/15 02:57:20;;;;;;;8.60;4.97;;;;;;;-144.43;100.00;64487.81;5052839;28;20038;-61
2021/10/15 02:59:46;;;;;;;9.55;4.85;;;;;;;-144.43;100.00;64487.81;5034765;28;20024;-61
2021/10/15 03:02:14;;;;;;;5.00;4.47;;;;;;;-144.43;100.00;64487.81;5052806;28;20013;-61
2021/10/15 03:04:39;;;;;;;6.50;4.90;;;;;;;-144.43;100.00;64487.81;5052594;28;20064;-61
2021/10/15 03:07:05;;;;;;;6.93;4.40;;;;;;;-144.43;100.00;64487.81;5034848;28;20044;-59
2021/10/15 03:09:30;;;;;;;7.75;4.80;;;;;;;-144.43;100.00;64487.81;5034895;28;20025;-61
2021/10/15 03:11:55;;;;;;;7.05;4.78;;;;;;;-144.43;100.00;64487.81;5034942;28;20487;-60
2021/10/15 03:14:29;;;;;;;6.82;4.60;;;;;;;-144.43;100.00;64487.81;5052504;28;20053;-60
2021/10/15 03:17:00;;;;;;;8.55;4.55;;;;;;;-144.43;100.00;64487.81;5035136;28;20116;-58
2021/10/15 03:19:25;;;;;;;8.15;4.38;;;;;;;-144.43;100.00;64487.81;5034575;28;20028;-58
2021/10/15 03:21:51;;;;;;;4.85;4.05;;;;;;;-144.43;100.00;64487.81;5034474;28;20459;-59
2021/10/15 03:24:19;;;;;;;8.07;4.47;;;;;;;-144.43;100.00;64487.81;5018156;28;20021;-59
2021/10/15 03:26:44;;;;;;;6.45;4.60;;;;;;;-144.43;100.00;64487.81;5024656;28;20510;-61
2021/10/15 03:29:10;;;;;;;5.85;4.10;;;;;;;-144.43;100.00;64487.81;5031258;28;20025;-61
2021/10/15 03:31:37;;;;;;;7.10;4.53;;;;;;;-144.43;100.00;64487.81;5045861;28;20027;-61
2021/10/15 03:34:03;;;;;;;7.32;4.30;;;;;;;-144.43;100.00;64487.81;5052291;28;20398;-61
2021/10/15 03:36:31;;;;;;;6.28;4.50;;;;;;;-144.43;100.00;64487.81;5052162;28;20112;-61
2021/10/15 03:38:56;;;;;;;5.68;3.83;;;;;;;-144.43;100.00;64487.81;5052335;28;20021;-61
2021/10/15 03:41:21;;;;;;;5.97;4.43;;;;;;;-144.43;100.00;64487.81;5052198;28;20025;-56
2021/10/15 03:43:50;;;;;;;6.60;4.57;;;;;;;-144.43;100.00;64487.81;5034983;28;20108;-60
2021/10/15 03:46:15;;;;;;;6.47;4.38;;;;;;;-144.43;100.00;64487.81;5058780;28;20025;-60
2021/10/15 03:48:41;;;;;;;5.55;4.07;;;;;;;-144.43;100.00;64487.81;5058824;28;20074;-59
2021/10/15 03:51:06;;;;;;;5.45;4.00;;;;;;;-144.43;100.00;64487.81;5058788;28;20025;-58
2021/10/15 03:53:31;;;;;;;5.70;3.75;;;;;;;-144.43;100.00;64487.81;5040753;28;20020;-57
2021/10/15 03:55:57;;;;;;;6.15;4.20;;;;;;;-144.43;100.00;64487.81;5041046;28;20021;-60
2021/10/15 03:58:28;;;;;;;4.75;3.70;;;;;;;-144.43;100.00;64487.81;5058795;28;20021;-58
2021/10/15 04:00:56;;;;;;;5.32;3.80;;;;;;;-144.43;100.00;64487.81;5058716;28;20476;-60
2021/10/15 04:03:23;;;;;;;4.63;3.53;;;;;;;-144.43;100.00;64487.81;5040770;28;20029;-60
2021/10/15 04:05:48;;;;;;;5.97;4.13;;;;;;;-144.43;100.00;64487.81;5040692;28;20487;-57
2021/10/15 04:08:17;;;;;;;5.05;3.65;;;;;;;-144.43;100.00;64487.81;5041164;28;20033;-57
2021/10/15 04:10:54;;;;;;;4.97;3.58;;;;;;;-144.43;100.00;64487.81;5024156;28;20539;-59
2021/10/15 04:13:20;;;;;;;4.43;3.42;;;;;;;-144.43;100.00;64487.81;5058576;28;20033;-56
2021/10/15 04:15:45;;;;;;;4.40;3.15;;;;;;;-144.43;100.00;64487.81;5058458;28;20041;-60
2021/10/15 04:18:10;;;;;;;5.93;3.58;;;;;;;-144.43;100.00;64487.81;5058526;28;20022;-60
2021/10/15 04:20:36;;;;;;;4.88;2.95;;;;;;;-144.43;100.00;64487.81;5040689;28;20028;-60
2021/10/15 04:23:01;;;;;;;5.22;3.42;;;;;;;-144.43;100.00;64487.81;5040626;28;20031;-60
2021/10/15 04:25:27;;;;;;;5.20;2.80;;;;;;;-144.43;100.00;64487.81;5058262;28;20053;-61
2021/10/15 04:27:55;;;;;;;4.00;2.88;;;;;;;-144.43;100.00;64487.81;5039456;28;20546;-61
2021/10/15 04:30:20;;;;;;;4.72;3.08;;;;;;;-144.43;100.00;64487.81;5055233;28;20032;-61
2021/10/15 04:32:46;;;;;;;4.05;2.92;;;;;;;-144.43;100.00;64487.81;5058640;28;20032;-61
2021/10/15 04:35:17;;;;;;;4.55;3.10;;;;;;;-144.43;100.00;64487.81;5058423;28;20024;-61
2021/10/15 04:37:46;;;;;;;4.20;3.13;;;;;;;-144.43;100.00;64487.81;5041525;28;20025;-61
2021/10/15 04:40:11;;;;;;;4.13;3.03;;;;;;;-144.43;100.00;64487.81;5040476;28;20422;-60
2021/10/15 04:42:38;;;;;;;3.88;3.00;;;;;;;-144.43;100.00;64487.81;5040605;28;20112;-60
2021/10/15 04:45:04;;;;;;;4.60;3.17;;;;;;;-144.43;100.00;64487.81;5040589;28;20025;-61
2021/10/15 04:47:35;;;;;;;5.53;3.22;;;;;;;-144.43;100.00;64487.81;5058429;28;20536;-59
2021/10/15 04:50:05;;;;;;;3.92;3.05;;;;;;;-144.43;100.00;64487.81;5024058;28;20029;-60
2021/10/15 04:52:31;;;;;;;3.03;2.35;;;;;;;-144.43;100.00;64487.81;5040522;28;20438;-61
2021/10/15 04:55:07;;;;;;;3.95;2.75;;;;;;;-144.43;100.00;64487.81;5040189;28;20029;-61
2021/10/15 04:57:34;;;;;;;4.95;2.95;;;;;;;-144.43;100.00;64487.81;5054364;28;20028;-61
2021/10/15 05:00:00;;;;;;;4.28;2.70;;;;;;;-144.43;100.00;64487.81;5055102;28;20036;-61
2021/10/15 05:02:31;;;;;;;4.32;2.70;;;;;;;-144.43;100.00;64487.81;5037156;28;20471;-57
2021/10/15 05:05:00;;;;;;;4.40;2.90;;;;;;;-144.43;100.00;64487.81;5037345;28;20025;-59
2021/10/15 05:07:32;;;;;;;3.70;2.80;;;;;;;-144.43;100.00;64487.81;5055031;28;20551;-58
2021/10/15 05:09:57;;;;;;;7.18;2.88;;;;;;;-144.43;100.00;64487.81;5037045;28;20040;-59
2021/10/15 05:12:22;;;;;;;6.85;3.10;;;;;;;-144.43;100.00;64487.81;5037393;28;20021;-59
2021/10/15 05:14:58;;;;;;;5.82;2.60;;;;;;;-144.43;100.00;64487.81;5054862;28;20032;-61
2021/10/15 05:17:23;;;;;;;3.65;2.65;;;;;;;-144.43;100.00;64487.81;5038042;28;20607;-61
2021/10/15 05:19:49;;;;;;;3.78;2.70;;;;;;;-144.43;100.00;64487.81;5054720;28;20032;-61
2021/10/15 05:22:14;;;;;;;3.22;2.35;;;;;;;-144.43;100.00;64487.81;5036757;28;20090;-61
2021/10/15 05:24:40;;;;;;;5.07;2.70;;;;;;;-144.43;100.00;64487.81;5054376;28;20534;-61
2021/10/15 05:27:05;;;;;;;3.70;2.70;;;;;;;-144.43;100.00;64487.81;5007772;28;20447;-61
2021/10/15 05:29:33;;;;;;;3.55;2.42;;;;;;;-144.43;100.00;64487.81;5044299;28;20082;-60
2021/10/15 05:31:59;;;;;;;4.82;3.00;;;;;;;-144.43;100.00;64487.81;5054266;28;20017;-61
2021/10/15 05:34:24;;;;;;;5.45;3.15;;;;;;;-144.43;100.00;64487.81;5036533;28;20029;-61
2021/10/15 05:36:50;;;;;;;7.00;2.53;;;;;;;-144.43;100.00;64487.81;5054307;28;20029;-60
2021/10/15 05:39:15;;;;;;;3.33;2.80;;;;;;;-144.43;100.00;64487.81;5036683;28;20118;-61
2021/10/15 05:41:46;;;;;;;4.55;2.45;;;;;;;-144.43;100.00;64487.81;5036608;28;20025;-61
2021/10/15 05:44:12;;;;;;;4.32;2.92;;;;;;;-144.43;100.00;64487.81;5027999;28;20083;-58
2021/10/15 05:46:37;;;;;;;4.72;2.50;;;;;;;-144.43;100.00;64487.81;5027970;28;20025;-58
2021/10/15 05:49:07;;;;;;;4.05;2.40;;;;;;;0.30;100.00;95329.97;5026176;28;20033;-58
2021/10/15 05:51:36;;;;;;;3.78;2.35;;;;;;;0.32;100.00;95340.31;5053875;28;20032;-60
2021/10/15 05:54:16;;;;;;;3.30;2.45;;;;;;;0.38;100.00;95358.00;5034080;28;20116;-55
2021/10/15 05:56:58;;;;;;;5.45;2.67;;;;;;;0.42;100.00;95359.22;5022448;28;20064;-59
2021/10/15 05:59:27;;;;;;;3.97;2.85;;;;;;;0.45;100.00;95367.56;5038008;28;20425;-55
2021/10/15 06:01:56;;;;;;;4.25;2.80;;;;;;;0.49;100.00;95365.34;5032067;28;20032;-61
2021/10/15 06:15:13;;;;;;;3.92;3.00;;;;;;;0.70;100.00;95367.88;5034276;28;20095;-61
2021/10/15 06:17:43;;;;;;;4.82;2.88;;;;;;;0.74;100.00;95374.38;5031501;28;20032;-61
2021/10/15 06:20:13;;;;;;;5.85;2.70;;;;;;;0.88;100.00;95375.28;5024066;28;20033;-61
2021/10/15 06:22:38;;;;;;;12.00;2.95;;;;;;;1.02;100.00;95371.66;5030282;28;20075;-61
2021/10/15 06:25:04;;;;;;;11.05;3.40;;;;;;;1.14;100.00;95382.44;5013048;28;20447;-60
2021/10/15 06:27:29;;;;;;;14.75;3.30;;;;;;;1.21;100.00;95378.00;5017108;28;20476;-61
2021/10/15 06:29:55;;;;;;;13.82;3.40;;;;;;;1.27;100.00;95385.09;5061911;28;20053;-57
2021/10/15 06:32:22;;;;;;;11.38;3.38;;;;;;;1.31;100.00;95374.97;5044012;28;20075;-61
2021/10/15 06:34:48;;;;;;;18.48;3.08;;;;;;;1.37;100.00;95379.44;5030117;28;20112;-60
2021/10/15 06:37:17;;;;;;;11.00;3.67;;;;;;;1.43;100.00;95383.94;5052984;28;20107;-61
2021/10/15 06:39:43;;;;;;;9.45;3.35;;;;;;;1.53;100.00;95387.00;5005244;28;20488;-60
2021/10/15 06:42:08;;;;;;;5.03;3.40;;;;;;;1.68;100.00;95389.44;5031339;28;20024;-61
2021/10/15 06:44:34;;;;;;;15.50;3.33;;;;;;;1.78;100.00;95381.94;5037793;28;20029;-61
2021/10/15 06:46:59;;;;;;;5.95;2.90;;;;;;;1.89;100.00;95388.44;5044915;28;20384;-61
2021/10/15 06:49:24;;;;;;;4.25;2.78;;;;;;;2.02;100.00;95378.66;5027101;28;20043;-61
2021/10/15 06:51:50;;;;;;;4.53;2.65;;;;;;;2.14;100.00;95385.97;5032114;28;20418;-61
2021/10/15 06:54:15;;;;;;;7.28;3.80;;;;;;;2.23;100.00;95390.84;5030355;28;20036;-60
2021/10/15 06:56:41;;;;;;;7.68;3.90;;;;;;;2.35;100.00;95400.78;5024951;28;20104;-61
2021/10/15 06:59:06;;;;;;;8.52;3.67;;;;;;;2.42;100.00;95389.19;5033130;28;20396;-61
2021/10/15 07:01:32;;;;;;;5.35;3.40;;;;;;;-144.43;100.00;64487.81;5038356;28;20066;-62
2021/10/15 07:03:58;;;;;;;5.45;3.65;;;;;;;-144.43;100.00;64487.81;5035056;28;20021;-61
2021/10/15 07:06:24;;;;;;;5.25;3.55;;;;;;;-144.43;100.00;64487.81;5018318;28;20025;-60
2021/10/15 07:08:49;;;;;;;6.32;3.75;;;;;;;-144.43;100.00;64487.81;5052718;28;20078;-60
2021/10/15 07:11:15;;;;;;;6.97;3.67;;;;;;;-144.43;100.00;64487.81;5018472;28;20108;-60
2021/10/15 07:13:40;;;;;;;5.68;4.20;;;;;;;-144.43;100.00;64487.81;5034700;28;20115;-60
2021/10/15 07:16:06;;;;;;;6.38;3.97;;;;;;;-144.43;100.00;64487.81;5034772;28;20021;-59
2021/10/15 07:18:33;;;;;;;6.80;4.07;;;;;;;-144.43;100.00;64487.81;5052461;28;20377;-60
2021/10/15 07:20:58;;;;;;;6.57;4.25;;;;;;;-144.43;100.00;64487.81;5034454;28;20528;-62
2021/10/15 07:23:23;;;;;;;5.68;4.35;;;;;;;-144.43;100.00;64487.81;5034748;28;20033;-62
2021/10/15 07:25:49;;;;;;;7.50;4.20;;;;;;;-144.43;100.00;64487.81;5032269;28;20053;-62
2021/10/15 07:28:15;;;;;;;5.93;4.60;;;;;;;-144.43;100.00;64487.81;5032593;28;20029;-62
2021/10/15 07:30:40;;;;;;;6.45;5.13;;;;;;;-144.43;100.00;64487.81;5033978;28;20029;-62
2021/10/15 07:33:06;;;;;;;11.05;5.32;;;;;;;-144.43;100.00;64487.81;5018061;28;20071;-62
2021/10/15 07:35:31;;;;;;;8.52;5.15;;;;;;;-144.43;100.00;64487.81;5052111;28;20028;-62
2021/10/15 07:37:59;;;;;;;10.50;6.45;;;;;;;-144.43;100.00;64487.81;5034321;28;20025;-62
2021/10/15 07:40:25;;;;;;;11.80;7.80;;;;;;;-144.43;100.00;64487.81;5034149;28;20025;-62
2021/10/15 07:42:50;;;;;;;11.25;8.05;;;;;;;-144.43;100.00;64487.81;5052200;28;20079;-62
2021/10/15 07:45:15;;;;;;;12.02;8.00;;;;;;;-144.43;100.00;64487.81;5034257;28;20061;-62
2021/10/15 07:47:41;;;;;;;13.57;8.60;;;;;;;-144.43;100.00;64487.81;5052287;28;20024;-62
2021/10/15 07:50:06;;;;;;;15.43;9.77;;;;;;;-144.43;100.00;64487.81;5052108;28;20047;-62
2021/10/15 07:52:32;;;;;;;16.83;11.07;;;;;;;-144.43;100.00;64487.81;5034180;28;20484;-62
2021/10/15 07:54:57;;;;;;;17.23;11.10;;;;;;;-144.43;100.00;64487.81;5051094;28;20100;-61
2021/10/15 07:57:25;;;;;;;18.10;10.63;;;;;;;-144.43;100.00;64487.81;5034365;28;20393;-60
2021/10/15 07:59:51;;;;;;;16.13;9.95;;;;;;;-144.43;100.00;64487.81;5051803;28;20025;-61
2021/10/15 08:02:16;;;;;;;13.75;8.88;;;;;;;-144.43;100.00;64487.81;5052217;28;20024;-62
2021/10/15 08:04:42;;;;;;;15.85;10.27;;;;;;;-144.43;100.00;64487.81;5051882;28;20028;-62
2021/10/15 08:07:07;;;;;;;14.52;9.90;;;;;;;-144.43;100.00;64487.81;5052392;28;20483;-62
2021/10/15 08:09:33;;;;;;;13.98;8.60;;;;;;;-144.43;100.00;64487.81;5034111;28;20028;-62
2021/10/15 08:11:58;;;;;;;8.70;6.13;;;;;;;-144.43;100.00;64487.81;5051953;28;20025;-62
2021/10/15 08:14:26;;;;;;;8.65;5.88;;;;;;;-144.43;100.00;64487.81;5017614;28;20024;-62
2021/10/15 08:16:52;;;;;;;6.55;5.00;;;;;;;-144.43;100.00;64487.81;5052034;28;20027;-62
2021/10/15 08:19:17;;;;;;;6.75;4.93;;;;;;;-144.43;100.00;64487.81;5034093;28;20111;-62
2021/10/15 08:21:43;;;;;;;5.75;4.25;;;;;;;-144.43;100.00;64487.81;5051983;28;20041;-63
2021/10/15 08:24:11;;;;;;;10.95;4.68;;;;;;;-144.43;100.00;64487.81;5034135;28;20025;-62
2021/10/15 08:26:36;;;;;;;6.45;3.90;;;;;;;-144.43;100.00;64487.81;5043065;28;20041;-62
2021/10/15 08:29:02;;;;;;;6.78;4.70;;;;;;;-144.43;100.00;64487.81;5037744;28;20083;-62
2021/10/15 08:31:27;;;;;;;6.10;4.15;;;;;;;-144.43;100.00;64487.81;5053062;28;20056;-62
2021/10/15 08:33:54;;;;;;;6.68;4.72;;;;;;;-144.43;100.00;64487.81;5021057;28;20067;-61
2021/10/15 08:36:21;;;;;;;4.80;3.67;;;;;;;-144.43;100.00;64487.81;5037620;28;20017;-60
2021/10/15 08:38:47;;;;;;;6.53;4.40;;;;;;;-144.43;100.00;64487.81;5037595;28;20159;-62
2021/10/15 08:41:12;;;;;;;7.22;4.93;;;;;;;-144.43;100.00;64487.81;5037674;28;20506;-61
2021/10/15 08:43:40;;;;;;;7.63;5.03;;;;;;;-144.43;100.00;64487.81;5037600;28;20063;-61
2021/10/15 08:46:06;;;;;;;6.85;5.03;;;;;;;-144.43;100.00;64487.81;5021435;28;20032;-58
2021/10/15 08:48:37;;;;;;;7.50;5.10;;;;;;;-144.43;100.00;64487.81;5055193;28;20029;-62
2021/10/15 08:51:03;;;;;;;8.70;5.30;;;;;;;-144.43;100.00;64487.81;5055328;28;20053;-62
2021/10/15 08:53:28;;;;;;;10.75;5.93;;;;;;;-144.43;100.00;64487.81;5055232;28;20067;-62
2021/10/15 08:55:55;;;;;;;8.50;5.97;;;;;;;-144.43;100.00;64487.81;5037661;28;20387;-62
2021/10/15 08:58:44;;;;;;;8.40;5.97;;;;;;;-144.43;100.00;64487.81;5037250;28;20021;-62
2021/10/15 09:01:09;;;;;;;7.88;5.60;;;;;;;-144.43;100.00;64487.81;5037500;28;20045;-62
2021/10/15 09:03:35;;;;;;;6.93;5.35;;;;;;;-144.43;100.00;64487.81;5037398;28;20479;-62
2021/10/15 09:06:07;;;;;;;12.18;6.05;;;;;;;-144.43;100.00;64487.81;5054935;28;20027;-62
2021/10/15 09:08:46;;;;;;;8.80;6.20;;;;;;;-144.43;100.00;64487.81;5054963;28;20062;-60
2021/10/15 09:11:49;;;;;;;8.10;5.25;;;;;;;12.03;100.00;94967.56;5052204;28;20350;-60
2021/10/15 09:14:17;;;;;;;;;;;;;;;12.24;100.00;94927.16;4975656;28;20536;-60
2021/10/15 09:16:55;;;;;;;7.25;5.00;;;;;;;12.50;100.00;94903.63;4980301;28;19914;-60
2021/10/15 09:19:25;;;;;;;8.60;5.28;;;;;;;12.65;100.00;94908.84;4992249;28;20034;-60
2021/10/15 09:22:09;;;;;;;9.02;5.82;;;;;;;12.75;100.00;94949.88;4993177;28;20038;-60
2021/10/15 09:24:41;;;;;;;8.90;5.68;;;;;;;12.66;100.00;94978.44;4992608;28;20038;-63
2021/10/15 09:27:36;;;;;;;8.02;5.72;;;;;;;12.64;100.00;95004.78;4980553;28;20155;-61
2021/10/15 09:30:04;;;;;;;6.85;5.13;;;;;;;12.77;100.00;95019.47;4970859;28;20039;-58
2021/10/15 09:32:32;;;;;;;7.45;5.32;;;;;;;13.21;100.00;95037.44;4954579;28;20038;-60
2021/10/15 09:34:58;;;;;;;9.02;5.10;;;;;;;13.58;100.00;95066.47;4947822;28;20042;-61
2021/10/15 09:37:27;;;;;;;7.00;4.97;;;;;;;13.40;100.00;95099.44;4960603;28;20041;-60
2021/10/15 09:40:07;;;;;;;6.93;4.95;;;;;;;13.35;100.00;95132.56;4962034;28;20061;-61
2021/10/15 09:42:37;;;;;;;8.02;4.68;;;;;;;13.56;100.00;95131.31;4989416;28;20580;-60
2021/10/15 09:45:04;;;;;;;8.35;5.18;;;;;;;13.90;100.00;95162.81;4990262;28;20103;-61
2021/10/15 09:47:30;;;;;;;6.28;4.50;;;;;;;14.15;100.00;95188.69;5027467;28;20017;-61
2021/10/15 09:50:01;;;;;;;5.18;4.45;;;;;;;14.25;100.00;95242.47;5034369;28;20033;-63
2021/10/15 09:52:47;;;;;;;7.72;4.20;;;;;;;14.34;100.00;95272.28;5012461;28;20056;-63
2021/10/15 09:55:19;;;;;;;6.90;4.60;;;;;;;14.54;100.00;95287.47;5019278;28;20035;-63
2021/10/15 09:57:47;;;;;;;7.43;4.35;;;;;;;14.89;100.00;95291.72;5039043;28;20048;-63
2021/10/15 10:00:21;;;;;;;7.25;4.60;;;;;;;15.15;100.00;95340.78;5034163;28;20025;-60
2021/10/15 10:02:47;;;;;;;7.85;4.88;;;;;;;15.07;100.00;95374.59;5044154;28;20024;-60
2021/10/15 10:05:15;;;;;;;8.80;5.70;;;;;;;15.14;100.00;95402.03;5007893;28;20049;-63
2021/10/15 10:07:45;;;;;;;10.15;5.97;;;;;;;15.18;100.00;95423.84;5027036;28;20112;-63
2021/10/15 10:10:14;;;;;;;9.68;5.65;;;;;;;15.23;100.00;95457.00;5033163;28;20021;-61
2021/10/15 10:12:42;;;;;;;7.72;5.20;;;;;;;15.04;100.00;95491.16;5017101;28;20104;-60
2021/10/15 10:15:10;;;;;;;7.75;5.47;;;;;;;15.23;100.00;95496.66;5029710;28;20099;-61
2021/10/15 10:17:39;;;;;;;7.13;5.32;;;;;;;15.28;100.00;95512.81;5051904;28;20082;-58
2021/10/15 10:20:09;;;;;;;9.20;5.22;;;;;;;15.40;100.00;95524.03;5014793;28;20029;-60
2021/10/15 10:22:36;;;;;;;8.82;5.60;;;;;;;15.17;100.00;95540.97;5018580;28;20111;-59
2021/10/15 10:25:02;;;;;;;10.95;5.15;;;;;;;15.33;100.00;95545.16;4995592;28;20091;-60
2021/10/15 10:27:32;;;;;;;7.40;5.40;;;;;;;15.45;100.00;95567.19;5029413;28;20021;-61
2021/10/15 10:29:58;;;;;;;9.38;5.82;;;;;;;15.43;100.00;95574.78;5031633;28;20040;-61
2021/10/15 10:32:26;;;;;;;8.93;5.35;;;;;;;15.79;100.00;95559.06;5046357;28;20032;-61
2021/10/15 10:34:52;;;;;;;9.77;5.68;;;;;;;15.85;100.00;95576.03;5029084;28;20036;-59
2021/10/15 10:37:19;;;;;;;8.68;5.47;;;;;;;16.02;100.00;95589.06;5035431;28;20119;-61
2021/10/15 10:39:45;;;;;;;7.65;5.07;;;;;;;15.96;100.00;95574.03;5035343;28;20023;-56
2021/10/15 10:42:18;;;;;;;8.95;5.30;;;;;;;16.09;100.00;95589.56;5018791;28;20024;-57
2021/10/15 10:44:49;;;;;;;;;;;;;;;16.28;100.00;95603.09;5035969;28;20056;-57
2021/10/15 10:47:17;;;;;;;6.88;4.90;;;;;;;16.21;100.00;95611.56;5053329;28;20344;-57
2021/10/15 10:50:06;;;;;;;8.38;5.93;;;;;;;16.20;100.00;95596.44;5052717;28;20028;-60
2021/10/15 10:52:39;;;;;;;7.43;4.57;;;;;;;16.63;100.00;95578.34;5046683;28;20040;-59
2021/10/15 10:55:05;;;;;;;6.85;5.07;;;;;;;16.89;100.00;95592.34;5052305;28;20028;-60
2021/10/15 10:57:33;;;;;;;6.72;4.80;;;;;;;16.95;100.00;95629.09;5035117;28;20503;-58
2021/10/15 11:00:22;;;;;;;10.20;5.10;;;;;;;16.99;100.00;95630.09;5034999;28;20439;-59
2021/10/15 11:02:53;;;;;;;6.75;4.72;;;;;;;17.10;100.00;95618.03;5049211;28;20377;-56
2021/10/15 11:05:36;;;;;;;8.02;4.93;;;;;;;17.20;100.00;95619.00;5006896;28;20038;-57
2021/10/15 11:08:23;;;;;;;7.43;5.05;;;;;;;17.31;100.00;95621.25;5040904;28;20538;-55
2021/10/15 11:11:09;;;;;;;6.97;5.07;;;;;;;17.32;100.00;95630.16;5036613;28;20080;-61
2021/10/15 11:13:36;;;;;;;7.25;4.88;;;;;;;17.45;100.00;95593.41;5019682;28;20021;-61
2021/10/15 11:16:18;;;;;;;7.47;5.15;;;;;;;17.41;100.00;95625.69;5043372;28;20039;-61
2021/10/15 11:18:43;;;;;;;6.70;5.47;;;;;;;17.37;100.00;95606.53;5014061;28;20029;-61
2021/10/15 11:21:24;;;;;;;9.15;5.80;;;;;;;17.43;100.00;95615.38;5034942;28;20025;-60
2021/10/15 11:23:53;;;;;;;6.05;4.82;;;;;;;17.38;100.00;95612.75;5020272;28;20028;-61
2021/10/15 11:26:33;;;;;;;6.88;5.18;;;;;;;17.43;100.00;95612.66;5039233;28;20053;-61
2021/10/15 11:28:59;;;;;;;6.03;4.47;;;;;;;17.49;100.00;95606.09;5027697;28;20036;-61
2021/10/15 11:31:30;;;;;;;6.35;4.35;;;;;;;17.75;100.00;95603.78;5032070;28;20380;-61